Time;durP1;ratioP1;P1;durP2;ratioP2;P2;SDS_P1;SDS_P2;PMS_P1;PMS_P2;Temp;Humidity;BMP_temperature;BMP_pressure;BME280_temperature;BME280_humidity;BME280_pressure;Samples;Min_cycle;Max_cycle;Signal;HPM_P1;HPM_P2
2022/08/29 00:02:07;;;;;;;9.90;4.07;;;17.10;99.90;;;;;;5072089;28;21118;-50
2022/08/29 00:04:34;;;;;;;12.37;4.83;;;17.10;99.90;;;;;;5071977;28;20431;-50
2022/08/29 00:07:00;;;;;;;9.00;4.27;;;17.50;99.90;;;;;;5071816;28;20432;-50
2022/08/29 00:09:27;;;;;;;10.00;5.13;;;17.20;99.90;;;;;;5071587;28;20457;-50
2022/08/29 00:11:54;;;;;;;13.10;6.13;;;17.10;99.90;;;;;;5071988;28;20818;-50
2022/08/29 00:14:21;;;;;;;8.20;4.40;;;17.00;99.90;;;;;;5071908;28;20437;-50
2022/08/29 00:16:47;;;;;;;6.50;4.20;;;17.00;99.90;;;;;;5071767;28;20471;-50
2022/08/29 00:19:15;;;;;;;6.90;4.17;;;16.90;99.90;;;;;;5071310;28;20535;-50
2022/08/29 00:21:42;;;;;;;8.13;4.50;;;17.00;99.90;;;;;;5071806;28;20849;-50
2022/08/29 00:24:12;;;;;;;13.67;5.20;;;16.90;99.90;;;;;;5070459;28;20456;-50
2022/08/29 00:26:39;;;;;;;7.53;4.00;;;16.90;99.90;;;;;;5071894;28;20498;-50
2022/08/29 00:29:06;;;;;;;9.80;4.30;;;16.90;99.90;;;;;;5069900;28;20999;-50
2022/08/29 00:31:32;;;;;;;6.87;5.27;;;16.80;99.90;;;;;;5069909;28;20488;-50
2022/08/29 00:33:59;;;;;;;12.43;4.60;;;17.10;99.90;;;;;;5071584;28;20444;-50
2022/08/29 00:36:27;;;;;;;8.87;4.30;;;16.80;99.90;;;;;;5072111;28;20455;-50
2022/08/29 00:38:53;;;;;;;14.00;5.23;;;16.30;99.90;;;;;;5071265;28;20455;-49
2022/08/29 00:41:20;;;;;;;12.70;4.63;;;16.80;99.90;;;;;;5071918;28;20450;-50
2022/08/29 00:43:47;;;;;;;10.17;3.93;;;16.80;99.90;;;;;;5071933;28;20961;-50
2022/08/29 00:46:38;;;;;;;9.13;4.57;;;16.70;99.90;;;;;;5071432;28;20997;-50
2022/08/29 00:49:08;;;;;;;5.80;3.97;;;16.80;99.90;;;;;;5071043;28;20905;-50
2022/08/29 00:51:36;;;;;;;9.70;4.90;;;16.70;99.90;;;;;;5071332;28;20439;-50
2022/08/29 00:54:09;;;;;;;8.80;5.07;;;16.70;99.90;;;;;;5071375;28;20477;-49
2022/08/29 00:56:38;;;;;;;12.67;4.90;;;16.70;99.90;;;;;;5071470;28;20435;-50
2022/08/29 00:59:10;;;;;;;9.00;4.47;;;17.00;99.90;;;;;;5070883;28;20466;-49
2022/08/29 01:01:37;;;;;;;8.17;4.53;;;16.70;99.90;;;;;;5071353;28;20435;-50
2022/08/29 01:04:05;;;;;;;8.33;4.17;;;16.70;99.90;;;;;;5071045;28;20934;-50
2022/08/29 01:06:33;;;;;;;7.07;4.73;;;16.60;99.90;;;;;;5074035;28;20460;-50
2022/08/29 01:09:02;;;;;;;8.23;4.03;;;16.60;99.90;;;;;;5074961;28;20450;-50
2022/08/29 01:14:16;;;;;;;6.37;3.97;;;16.80;99.90;;;;;;5075417;28;20958;-50
2022/08/29 01:16:43;;;;;;;9.93;4.50;;;16.50;99.90;;;;;;5075502;28;20457;-50
2022/08/29 01:19:20;;;;;;;9.50;4.33;;;16.50;99.90;;;;;;5074812;28;20475;-49
2022/08/29 01:21:55;;;;;;;8.33;4.40;;;16.40;99.90;;;;;;5075526;28;20830;-50
2022/08/29 01:24:34;;;;;;;9.67;4.50;;;16.50;99.90;;;;;;5075169;28;20429;-50
2022/08/29 01:27:01;;;;;;;8.57;4.20;;;16.50;99.90;;;;;;5075107;28;20427;-49
2022/08/29 01:29:27;;;;;;;12.10;4.80;;;16.50;99.90;;;;;;5074964;28;20449;-50
2022/08/29 01:31:54;;;;;;;7.07;4.57;;;16.50;99.90;;;;;;5075022;28;20797;-49
2022/08/29 01:34:21;;;;;;;11.53;4.63;;;16.50;99.90;;;;;;5075071;28;20534;-50
2022/08/29 01:36:52;;;;;;;7.13;4.07;;;16.90;99.90;;;;;;5074891;28;20430;-50
2022/08/29 01:39:20;;;;;;;7.67;4.20;;;16.30;99.90;;;;;;5074609;28;20461;-49
2022/08/29 01:41:49;;;;;;;8.97;4.33;;;16.30;99.90;;;;;;5075363;28;20436;-50
2022/08/29 01:44:18;;;;;;;8.93;3.60;;;16.40;99.90;;;;;;5075235;28;20474;-50
2022/08/29 01:46:47;;;;;;;6.13;3.93;;;16.10;99.90;;;;;;5075041;28;20438;-50
2022/08/29 01:49:15;;;;;;;11.80;5.27;;;16.40;99.90;;;;;;5074553;28;20456;-50
2022/08/29 01:51:41;;;;;;;14.40;4.93;;;16.80;99.90;;;;;;5074770;28;20431;-50
2022/08/29 01:54:09;;;;;;;11.37;4.67;;;16.30;99.90;;;;;;5074806;28;20438;-50
2022/08/29 01:56:40;;;;;;;8.53;4.27;;;16.40;99.90;;;;;;5074623;28;20528;-50
2022/08/29 01:59:10;;;;;;;8.80;4.73;;;16.30;99.90;;;;;;5074283;28;20443;-50
2022/08/29 02:01:39;;;;;;;9.43;4.47;;;16.30;99.90;;;;;;5074563;28;20458;-50
2022/08/29 02:04:08;;;;;;;8.10;3.93;;;16.40;99.90;;;;;;5074387;28;20429;-50
2022/08/29 02:06:35;;;;;;;9.47;5.00;;;16.30;99.90;;;;;;5074366;28;20957;-50
2022/08/29 02:09:03;;;;;;;10.50;3.87;;;16.30;99.90;;;;;;5073682;28;20447;-50
2022/08/29 02:11:29;;;;;;;11.43;4.73;;;16.50;99.90;;;;;;5074090;28;20800;-49
2022/08/29 02:13:58;;;;;;;9.07;4.17;;;16.30;99.90;;;;;;5074329;28;20457;-50
2022/08/29 02:16:28;;;;;;;8.43;4.27;;;16.20;99.90;;;;;;5073978;28;20435;-50
2022/08/29 02:18:56;;;;;;;9.13;4.40;;;16.20;99.90;;;;;;5073548;28;20485;-50
2022/08/29 02:21:25;;;;;;;9.80;4.83;;;16.20;99.90;;;;;;5074144;28;20441;-50
2022/08/29 02:23:56;;;;;;;11.10;4.33;;;16.50;99.90;;;;;;5074160;28;20443;-50
2022/08/29 02:26:22;;;;;;;9.43;4.00;;;16.40;99.90;;;;;;5074029;28;20530;-50
2022/08/29 02:28:50;;;;;;;9.93;5.00;;;16.40;99.90;;;;;;5073660;28;20923;-49
2022/08/29 02:31:17;;;;;;;7.70;4.27;;;16.20;99.90;;;;;;5074152;28;20445;-50
2022/08/29 02:33:45;;;;;;;8.50;4.30;;;16.20;99.90;;;;;;5073818;28;20946;-50
2022/08/29 02:36:12;;;;;;;11.10;5.47;;;16.10;99.90;;;;;;5073923;28;20428;-50
2022/08/29 02:38:39;;;;;;;6.53;3.90;;;16.10;99.90;;;;;;5073277;28;20488;-50
2022/08/29 02:41:06;;;;;;;14.03;4.73;;;16.30;99.90;;;;;;5073833;28;20427;-50
2022/08/29 02:43:33;;;;;;;10.33;4.80;;;16.10;99.90;;;;;;5073693;28;20563;-50
2022/08/29 02:45:59;;;;;;;10.60;4.83;;;16.50;99.90;;;;;;5073730;28;20437;-50
2022/08/29 02:48:26;;;;;;;15.23;5.30;;;16.10;99.90;;;;;;5073441;28;20426;-50
2022/08/29 02:50:57;;;;;;;9.80;4.50;;;16.10;99.90;;;;;;5073586;28;20450;-50
2022/08/29 02:53:27;;;;;;;8.43;4.87;;;16.00;99.90;;;;;;5073851;28;20452;-50
2022/08/29 02:55:54;;;;;;;6.40;4.80;;;16.00;99.90;;;;;;5073473;28;20452;-50
2022/08/29 02:58:23;;;;;;;10.43;4.13;;;15.90;99.90;;;;;;5073213;28;20912;-50
2022/08/29 03:00:50;;;;;;;12.57;4.77;;;16.00;99.90;;;;;;5073159;28;20453;-50
2022/08/29 03:03:17;;;;;;;10.73;5.33;;;16.00;99.90;;;;;;5073335;28;20430;-50
2022/08/29 03:05:43;;;;;;;9.67;4.40;;;16.00;99.90;;;;;;5072083;28;20438;-50
2022/08/29 03:08:13;;;;;;;9.80;4.70;;;16.00;99.90;;;;;;5073225;28;20441;-50
2022/08/29 03:10:41;;;;;;;9.17;4.90;;;15.90;99.90;;;;;;5073205;28;20946;-50
2022/08/29 03:13:08;;;;;;;10.47;5.10;;;16.20;99.90;;;;;;5073171;28;20444;-49
2022/08/29 03:15:35;;;;;;;13.90;4.60;;;16.40;99.90;;;;;;5073120;28;20809;-50
2022/08/29 03:18:01;;;;;;;7.20;4.60;;;16.50;99.90;;;;;;5072839;28;20505;-50
2022/08/29 03:20:28;;;;;;;8.43;4.60;;;15.90;99.90;;;;;;5072485;28;20467;-50
2022/08/29 03:22:56;;;;;;;11.30;4.60;;;15.30;99.90;;;;;;5072951;28;20449;-50
2022/08/29 03:25:24;;;;;;;8.90;5.40;;;15.80;99.90;;;;;;5072838;28;20960;-50
2022/08/29 03:27:51;;;;;;;10.50;4.73;;;15.80;99.90;;;;;;5072217;28;20798;-49
2022/08/29 03:30:18;;;;;;;9.47;5.00;;;15.50;99.90;;;;;;5072738;28;20470;-49
2022/08/29 03:32:45;;;;;;;7.13;4.63;;;15.80;99.90;;;;;;5072844;28;20950;-49
2022/08/29 03:35:13;;;;;;;9.43;5.40;;;15.70;99.90;;;;;;5072666;28;20847;-49
2022/08/29 03:37:40;;;;;;;11.60;5.60;;;15.50;99.90;;;;;;5072397;28;20504;-49
2022/08/29 03:40:09;;;;;;;10.30;5.20;;;15.70;99.90;;;;;;5072039;28;20512;-50
2022/08/29 03:42:37;;;;;;;8.00;4.30;;;15.70;99.90;;;;;;5072635;28;20804;-50
2022/08/29 03:45:06;;;;;;;7.30;4.13;;;15.60;99.90;;;;;;5072196;28;20426;-50
2022/08/29 03:47:33;;;;;;;13.67;5.33;;;15.70;99.90;;;;;;5072390;28;20431;-50
2022/08/29 03:50:00;;;;;;;9.40;4.77;;;15.70;99.90;;;;;;5071836;28;20454;-50
2022/08/29 03:52:27;;;;;;;17.33;6.77;;;15.60;99.90;;;;;;5072377;28;20482;-50
2022/08/29 03:54:53;;;;;;;7.63;5.20;;;15.70;99.90;;;;;;5072253;28;20430;-50
2022/08/29 03:57:20;;;;;;;9.40;5.10;;;15.60;99.90;;;;;;5072229;28;20437;-50
2022/08/29 03:59:48;;;;;;;9.47;4.50;;;15.50;99.90;;;;;;5070235;28;20457;-50
2022/08/29 04:02:17;;;;;;;12.43;5.20;;;15.30;99.90;;;;;;5072217;28;20926;-49
2022/08/29 04:07:28;;;;;;;11.77;6.33;;;15.30;99.90;;;;;;5072249;28;20758;-50
2022/08/29 04:09:54;;;;;;;7.40;5.63;;;15.60;99.90;;;;;;5071605;28;20460;-50
2022/08/29 04:12:21;;;;;;;7.13;4.43;;;15.50;99.90;;;;;;5072109;28;20456;-50
2022/08/29 04:14:49;;;;;;;10.40;4.30;;;15.80;99.90;;;;;;5071783;28;20438;-50
2022/08/29 04:17:15;;;;;;;12.37;6.10;;;15.00;99.90;;;;;;5071810;28;20811;-50
2022/08/29 04:19:42;;;;;;;9.27;4.97;;;15.70;99.90;;;;;;5094589;22;21088;-51
2022/08/29 04:22:09;;;;;;;13.33;5.90;;;15.40;99.90;;;;;;5072172;28;20551;-50
2022/08/29 04:24:35;;;;;;;12.30;4.60;;;15.50;99.90;;;;;;5072005;28;20438;-51
2022/08/29 04:27:02;;;;;;;11.50;5.40;;;15.20;99.90;;;;;;5072159;28;20441;-50
2022/08/29 04:29:29;;;;;;;9.67;4.50;;;15.60;99.90;;;;;;5071277;28;20449;-49
2022/08/29 04:31:56;;;;;;;10.40;5.53;;;15.60;99.90;;;;;;5071896;28;20439;-50
2022/08/29 04:34:23;;;;;;;10.67;5.20;;;15.70;99.90;;;;;;5072089;28;20435;-49
2022/08/29 04:36:50;;;;;;;9.73;5.80;;;16.00;99.90;;;;;;5071882;28;20465;-50
2022/08/29 04:39:17;;;;;;;9.03;5.20;;;16.10;99.90;;;;;;5070088;28;20484;-51
2022/08/29 04:41:43;;;;;;;11.40;5.70;;;15.90;99.90;;;;;;5071942;28;20776;-50
2022/08/29 04:44:11;;;;;;;8.40;5.83;;;16.00;99.90;;;;;;5071955;28;20534;-50
2022/08/29 04:46:38;;;;;;;12.40;5.30;;;15.80;99.90;;;;;;5071684;28;20445;-50
2022/08/29 04:49:06;;;;;;;12.50;6.00;;;16.10;99.90;;;;;;5071238;28;20926;-50
2022/08/29 04:51:34;;;;;;;12.27;5.33;;;16.40;99.90;;;;;;5071663;28;20909;-50
2022/08/29 04:54:01;;;;;;;10.70;5.23;;;16.00;99.90;;;;;;5071670;28;20438;-50
2022/08/29 04:56:28;;;;;;;15.93;6.57;;;16.00;99.90;;;;;;5071565;28;20513;-50
2022/08/29 04:58:54;;;;;;;13.63;5.60;;;16.20;99.90;;;;;;5071094;28;20477;-50
2022/08/29 05:01:23;;;;;;;14.63;6.07;;;16.00;99.90;;;;;;5071542;28;20455;-50
2022/08/29 05:03:51;;;;;;;11.40;6.53;;;16.50;99.90;;;;;;5071691;28;20572;-51
2022/08/29 05:06:21;;;;;;;11.17;6.23;;;16.40;99.90;;;;;;5071356;28;20485;-51
2022/08/29 05:08:48;;;;;;;11.57;6.67;;;16.40;99.90;;;;;;5070992;28;20525;-50
2022/08/29 05:11:18;;;;;;;10.30;6.00;;;16.20;99.90;;;;;;5070982;28;20456;-50
2022/08/29 05:13:46;;;;;;;11.33;6.27;;;16.50;99.90;;;;;;5071393;28;20487;-50
2022/08/29 05:16:15;;;;;;;15.90;7.10;;;16.50;99.90;;;;;;5069821;28;20488;-51
2022/08/29 05:18:43;;;;;;;12.90;6.57;;;16.50;99.90;;;;;;5070667;28;20563;-50
2022/08/29 05:21:11;;;;;;;16.30;7.47;;;16.60;99.90;;;;;;5071529;28;20493;-50
2022/08/29 05:23:39;;;;;;;17.03;7.40;;;16.40;99.90;;;;;;5070942;28;20444;-50
2022/08/29 05:26:06;;;;;;;12.03;7.27;;;16.60;99.90;;;;;;5071359;28;20432;-51
2022/08/29 05:28:35;;;;;;;15.50;6.87;;;16.60;99.90;;;;;;5070690;28;21005;-50
2022/08/29 05:31:04;;;;;;;15.50;8.10;;;16.60;99.90;;;;;;5070983;28;20470;-50
2022/08/29 05:33:31;;;;;;;13.90;8.00;;;16.60;99.90;;;;;;5070433;28;20431;-49
2022/08/29 05:35:58;;;;;;;15.20;7.63;;;16.60;99.90;;;;;;5071164;28;20851;-50
2022/08/29 05:38:25;;;;;;;16.67;9.27;;;17.10;99.90;;;;;;5069852;28;20471;-52
2022/08/29 05:40:52;;;;;;;20.10;9.00;;;16.80;99.90;;;;;;5070870;28;20420;-50
2022/08/29 05:43:19;;;;;;;19.60;9.27;;;16.80;99.90;;;;;;5070980;28;20430;-49
2022/08/29 05:45:46;;;;;;;19.80;9.30;;;16.80;99.90;;;;;;5070734;28;20868;-50
2022/08/29 05:48:13;;;;;;;17.20;8.83;;;16.90;99.90;;;;;;5070004;28;20433;-50
2022/08/29 05:50:41;;;;;;;18.33;9.80;;;17.00;99.90;;;;;;5071695;28;20541;-51
2022/08/29 05:53:09;;;;;;;22.37;8.97;;;17.10;99.90;;;;;;5074071;28;20435;-52
2022/08/29 05:55:39;;;;;;;17.90;10.53;;;17.10;99.90;;;;;;5072632;28;20465;-51
2022/08/29 05:58:07;;;;;;;14.10;8.37;;;17.30;99.90;;;;;;5073986;28;20493;-49
2022/08/29 06:00:37;;;;;;;19.23;8.77;;;17.30;99.90;;;;;;5073946;28;21017;-50
2022/08/29 06:03:04;;;;;;;18.00;8.50;;;17.40;99.90;;;;;;5074368;28;20536;-52
2022/08/29 06:05:30;;;;;;;12.70;8.80;;;17.40;99.90;;;;;;5074262;28;20432;-51
2022/08/29 06:07:57;;;;;;;17.33;8.47;;;17.50;99.90;;;;;;5074602;28;20494;-50
2022/08/29 06:10:23;;;;;;;20.20;9.07;;;17.60;99.90;;;;;;5073683;28;20459;-50
2022/08/29 06:12:50;;;;;;;13.23;9.00;;;17.60;99.90;;;;;;5074160;28;20448;-51
2022/08/29 06:15:18;;;;;;;24.27;8.90;;;17.60;99.90;;;;;;5074055;28;20927;-49
2022/08/29 06:17:45;;;;;;;15.67;7.63;;;17.80;99.90;;;;;;5073922;28;20440;-50
2022/08/29 06:20:12;;;;;;;12.80;7.43;;;17.70;99.90;;;;;;5073668;28;20860;-51
2022/08/29 06:22:39;;;;;;;16.67;9.30;;;17.70;99.90;;;;;;5074332;28;20439;-50
2022/08/29 06:25:07;;;;;;;15.33;7.70;;;17.80;99.90;;;;;;5073867;28;20447;-51
2022/08/29 06:27:34;;;;;;;15.63;7.77;;;17.70;99.90;;;;;;5073658;28;20489;-51
2022/08/29 06:30:01;;;;;;;13.50;7.67;;;17.70;99.90;;;;;;5073382;28;20568;-51
2022/08/29 06:32:29;;;;;;;13.67;7.90;;;17.80;99.90;;;;;;5074476;28;20526;-51
2022/08/29 06:34:56;;;;;;;24.47;8.80;;;17.80;99.90;;;;;;5073361;28;20978;-51
2022/08/29 06:37:23;;;;;;;25.40;7.63;;;17.80;99.90;;;;;;5072944;28;20435;-50
2022/08/29 06:39:49;;;;;;;24.53;8.27;;;17.80;99.90;;;;;;5071852;28;20482;-51
2022/08/29 06:42:17;;;;;;;20.40;7.77;;;18.20;99.90;;;;;;5073499;28;20508;-50
2022/08/29 06:44:44;;;;;;;28.83;9.90;;;17.90;99.90;;;;;;5074124;28;20449;-51
2022/08/29 06:47:10;;;;;;;11.37;6.70;;;18.10;99.90;;;;;;5073866;28;20429;-50
2022/08/29 06:49:38;;;;;;;14.97;6.57;;;18.00;99.90;;;;;;5073654;28;21006;-50
2022/08/29 06:52:05;;;;;;;16.70;7.10;;;18.10;99.90;;;;;;5073217;28;20513;-51
2022/08/29 06:54:32;;;;;;;17.67;8.13;;;18.10;99.90;;;;;;5073734;28;20432;-51
2022/08/29 06:56:59;;;;;;;21.57;8.43;;;18.40;99.90;;;;;;5073963;28;20433;-51
2022/08/29 06:59:26;;;;;;;16.73;8.40;;;18.30;99.90;;;;;;5073374;28;20488;-51
2022/08/29 07:01:54;;;;;;;24.27;8.50;;;18.10;99.90;;;;;;5072629;28;20433;-51
2022/08/29 07:04:21;;;;;;;14.40;7.47;;;18.50;99.90;;;;;;5072877;28;20976;-50
2022/08/29 07:06:49;;;;;;;16.23;6.93;;;18.50;99.90;;;;;;5073170;28;20818;-50
2022/08/29 07:09:17;;;;;;;17.53;8.90;;;18.60;99.90;;;;;;5072263;28;20428;-50
2022/08/29 07:15:31;;;;;;;12.93;6.67;;;18.60;99.90;;;;;;5072630;28;20417;-51
2022/08/29 07:17:58;;;;;;;11.90;6.80;;;18.50;99.90;;;;;;5071433;28;20460;-51
2022/08/29 07:20:25;;;;;;;13.73;6.47;;;18.40;99.90;;;;;;5070983;28;20491;-51
2022/08/29 07:22:54;;;;;;;14.17;7.17;;;18.60;99.90;;;;;;5071617;28;20571;-51
2022/08/29 07:25:22;;;;;;;15.83;6.93;;;18.80;99.90;;;;;;5073429;28;20535;-49
2022/08/29 07:27:49;;;;;;;15.97;7.90;;;18.40;99.90;;;;;;5072694;28;20433;-50
2022/08/29 07:30:17;;;;;;;16.97;6.90;;;19.10;99.90;;;;;;5071985;28;20500;-50
2022/08/29 07:32:44;;;;;;;9.60;6.90;;;19.10;99.90;;;;;;5072236;28;20514;-51
2022/08/29 07:35:12;;;;;;;13.87;7.60;;;18.90;99.90;;;;;;5070928;28;20840;-51
2022/08/29 07:37:39;;;;;;;15.67;7.23;;;19.10;99.90;;;;;;5071573;28;20795;-50
2022/08/29 07:40:10;;;;;;;14.43;6.23;;;18.90;99.90;;;;;;5071419;28;20533;-50
2022/08/29 07:42:38;;;;;;;12.07;7.23;;;19.00;99.90;;;;;;5072296;28;20436;-50
2022/08/29 07:45:07;;;;;;;13.73;6.20;;;19.00;99.90;;;;;;5072755;28;20545;-51
2022/08/29 07:47:34;;;;;;;10.23;6.77;;;19.00;99.90;;;;;;5072094;28;20429;-50
2022/08/29 07:50:01;;;;;;;14.27;7.77;;;19.10;99.90;;;;;;5070044;28;21041;-51
2022/08/29 07:52:28;;;;;;;17.03;6.70;;;19.10;99.90;;;;;;5071918;28;20433;-51
2022/08/29 07:54:54;;;;;;;11.00;7.10;;;19.50;99.90;;;;;;5071277;28;20809;-50
2022/08/29 07:57:23;;;;;;;13.50;7.33;;;19.20;99.90;;;;;;5071885;28;20430;-51
2022/08/29 07:59:50;;;;;;;9.47;6.33;;;19.20;99.90;;;;;;5072062;28;21024;-51
2022/08/29 08:02:16;;;;;;;18.40;6.93;;;19.30;99.90;;;;;;5071884;28;20945;-50
2022/08/29 08:04:43;;;;;;;10.33;6.53;;;19.40;99.90;;;;;;5071709;28;20437;-51
2022/08/29 08:07:10;;;;;;;11.37;6.57;;;19.30;99.90;;;;;;5071921;28;20457;-51
2022/08/29 08:09:36;;;;;;;11.70;6.50;;;19.50;99.90;;;;;;5071485;28;20449;-51
2022/08/29 08:12:04;;;;;;;13.80;6.77;;;19.20;99.90;;;;;;5071841;28;20433;-51
2022/08/29 08:14:32;;;;;;;8.53;6.10;;;19.10;99.90;;;;;;5071965;28;20434;-51
2022/08/29 08:16:58;;;;;;;11.97;6.83;;;19.60;99.90;;;;;;5071821;28;20433;-50
2022/08/29 08:19:25;;;;;;;11.60;7.27;;;19.90;99.90;;;;;;5071152;28;20481;-51
2022/08/29 08:21:52;;;;;;;12.83;7.10;;;20.20;99.90;;;;;;5069929;28;20453;-51
2022/08/29 08:24:20;;;;;;;12.33;7.10;;;20.10;99.90;;;;;;5071712;28;20427;-52
2022/08/29 08:26:47;;;;;;;11.07;5.40;;;20.20;99.90;;;;;;5069537;28;20466;-52
2022/08/29 08:29:14;;;;;;;10.47;5.97;;;20.20;99.90;;;;;;5071158;28;20754;-50
2022/08/29 08:31:44;;;;;;;15.33;6.00;;;20.50;99.90;;;;;;5080700;28;20968;-50
2022/08/29 08:34:14;;;;;;;9.70;6.07;;;20.30;99.90;;;;;;5072044;28;20458;-50
2022/08/29 08:36:43;;;;;;;15.00;6.93;;;20.30;99.90;;;;;;5058615;28;20663;-50
2022/08/29 08:39:11;;;;;;;15.23;7.33;;;20.30;99.90;;;;;;5070414;28;20586;-51
2022/08/29 08:41:49;;;;;;;9.33;6.40;;;20.30;99.90;;;;;;5071660;28;20451;-51
2022/08/29 08:44:47;;;;;;;16.90;6.50;;;20.30;99.90;;;;;;5071123;28;20539;-49
2022/08/29 08:47:23;;;;;;;9.10;6.30;;;20.30;99.90;;;;;;5076857;28;20521;-50
2022/08/29 08:49:54;;;;;;;14.63;6.63;;;20.40;99.90;;;;;;5084441;28;20475;-50
2022/08/29 08:52:27;;;;;;;14.57;7.77;;;20.40;99.90;;;;;;5069600;28;20816;-51
2022/08/29 08:55:00;;;;;;;13.43;7.50;;;20.50;99.90;;;;;;5071167;28;20436;-51
2022/08/29 08:57:34;;;;;;;11.93;8.70;;;20.20;99.90;;;;;;5068875;28;20455;-51
2022/08/29 09:00:02;;;;;;;11.80;5.97;;;20.20;99.90;;;;;;5068959;28;20493;-51
2022/08/29 09:02:37;;;;;;;9.43;6.57;;;20.80;99.90;;;;;;5069445;28;20477;-51
2022/08/29 09:05:23;;;;;;;14.07;6.90;;;20.80;99.90;;;;;;5075673;28;20452;-51
2022/08/29 09:07:58;;;;;;;13.00;6.90;;;21.00;99.90;;;;;;5069649;28;20438;-50
2022/08/29 09:10:38;;;;;;;12.27;7.07;;;21.10;99.90;;;;;;5071001;28;20456;-51
2022/08/29 09:13:12;;;;;;;16.97;7.40;;;21.00;99.90;;;;;;5070683;28;20439;-51
2022/08/29 09:15:43;;;;;;;9.67;6.93;;;20.80;99.90;;;;;;5070949;28;20915;-52
2022/08/29 09:18:13;;;;;;;11.40;6.50;;;21.00;99.90;;;;;;5070924;28;20445;-51
2022/08/29 09:20:42;;;;;;;12.60;6.57;;;21.20;99.90;;;;;;5070728;28;20492;-51
2022/08/29 09:23:18;;;;;;;13.30;6.43;;;21.20;99.90;;;;;;5071064;28;20468;-51
2022/08/29 09:25:45;;;;;;;10.53;5.90;;;21.40;99.90;;;;;;5072460;28;20850;-50
2022/08/29 09:28:12;;;;;;;9.97;6.07;;;21.50;99.90;;;;;;5074707;28;20428;-51
2022/08/29 09:31:18;;;;;;;11.07;6.67;;;21.50;99.90;;;;;;5074405;28;20465;-52
2022/08/29 09:33:52;;;;;;;12.40;6.67;;;21.60;99.90;;;;;;5073984;28;20479;-51
2022/08/29 09:36:42;;;;;;;11.07;6.20;;;21.80;99.90;;;;;;5072983;28;20453;-51
2022/08/29 09:39:21;;;;;;;17.13;6.83;;;21.70;99.90;;;;;;5073150;28;20463;-51
2022/08/29 09:41:50;;;;;;;9.53;5.90;;;21.80;99.90;;;;;;5073387;28;20451;-50
2022/08/29 09:44:22;;;;;;;12.07;5.70;;;21.90;99.90;;;;;;5074341;28;20808;-50
2022/08/29 09:47:06;;;;;;;10.20;6.30;;;21.90;99.90;;;;;;5072820;28;20463;-49
2022/08/29 09:49:36;;;;;;;9.30;5.60;;;21.70;99.90;;;;;;5072749;28;20475;-52
2022/08/29 09:52:14;;;;;;;13.00;6.50;;;22.00;99.90;;;;;;5072510;28;20966;-51
2022/08/29 09:54:43;;;;;;;9.30;5.70;;;22.30;99.90;;;;;;5072924;28;20441;-51
2022/08/29 09:57:19;;;;;;;7.57;4.70;;;22.20;99.90;;;;;;5074346;28;20436;-51
2022/08/29 09:59:49;;;;;;;12.50;6.20;;;22.10;99.90;;;;;;5074004;28;20544;-50
2022/08/29 10:02:25;;;;;;;8.83;6.23;;;22.10;99.90;;;;;;5074368;28;20431;-50
2022/08/29 10:04:56;;;;;;;13.00;6.50;;;22.40;99.90;;;;;;5074240;28;20438;-50
2022/08/29 10:07:25;;;;;;;9.40;5.53;;;22.40;99.90;;;;;;5074126;28;20438;-50
2022/08/29 10:09:59;;;;;;;11.57;5.67;;;22.60;99.90;;;;;;5073139;28;20462;-50
2022/08/29 10:12:46;;;;;;;8.70;5.63;;;22.70;99.90;;;;;;5074345;28;20437;-50
2022/08/29 10:15:18;;;;;;;15.53;6.20;;;22.70;99.90;;;;;;5074160;28;20441;-49
2022/08/29 10:20:46;;;;;;;9.50;6.27;;;22.60;99.90;;;;;;5089196;22;20532;-49
2022/08/29 10:23:20;;;;;;;8.30;5.70;;;22.50;99.90;;;;;;5073406;28;20432;-49
2022/08/29 10:25:47;;;;;;;9.30;6.30;;;22.50;99.90;;;;;;5073411;28;20443;-49
2022/08/29 10:28:24;;;;;;;8.83;6.17;;;22.50;99.90;;;;;;5073323;28;20823;-50
2022/08/29 10:30:56;;;;;;;13.90;6.20;;;22.50;99.90;;;;;;5073715;28;20462;-51
2022/08/29 10:33:34;;;;;;;12.83;5.60;;;22.40;99.90;;;;;;5069606;28;21015;-50
2022/08/29 10:36:08;;;;;;;10.33;5.60;;;22.50;99.90;;;;;;5067952;28;20457;-50
2022/08/29 10:38:57;;;;;;;9.50;6.40;;;22.40;99.90;;;;;;5072981;28;20438;-49
2022/08/29 10:41:31;;;;;;;10.90;7.40;;;22.40;99.90;;;;;;5072987;28;20998;-50
2022/08/29 10:44:12;;;;;;;9.57;6.70;;;22.30;99.90;;;;;;5072018;28;20454;-50
2022/08/29 10:46:59;;;;;;;8.00;6.50;;;21.90;99.90;;;;;;5073390;28;20737;-50
2022/08/29 10:49:39;;;;;;;7.73;6.40;;;22.30;99.90;;;;;;5072664;28;20909;-50
2022/08/29 10:52:16;;;;;;;7.77;6.40;;;22.50;99.90;;;;;;5072905;28;20525;-50
2022/08/29 10:54:52;;;;;;;9.10;6.23;;;22.30;99.90;;;;;;5073046;28;20954;-50
2022/08/29 10:57:40;;;;;;;9.50;6.27;;;22.60;99.90;;;;;;5072860;28;20436;-50
2022/08/29 11:00:12;;;;;;;9.67;6.93;;;22.70;99.90;;;;;;5072509;28;20571;-49
2022/08/29 11:02:46;;;;;;;16.37;7.00;;;22.40;99.90;;;;;;5072862;28;20423;-49
2022/08/29 11:05:18;;;;;;;12.20;7.00;;;22.70;99.90;;;;;;5073175;28;20448;-49
2022/08/29 11:07:52;;;;;;;12.97;7.07;;;22.60;99.90;;;;;;5071514;28;20576;-49
2022/08/29 11:10:24;;;;;;;7.83;6.47;;;22.60;99.90;;;;;;5072165;28;20467;-49
2022/08/29 11:12:56;;;;;;;10.50;6.60;;;22.70;99.90;;;;;;5073010;28;20896;-50
2022/08/29 11:15:26;;;;;;;11.63;6.60;;;22.70;99.90;;;;;;5072865;28;20437;-50
2022/08/29 11:18:00;;;;;;;9.33;5.80;;;22.80;99.90;;;;;;5072811;28;20431;-50
2022/08/29 11:20:32;;;;;;;9.33;6.87;;;22.70;99.90;;;;;;5072013;28;20493;-50
2022/08/29 11:23:05;;;;;;;11.27;7.53;;;22.70;99.90;;;;;;5072473;28;20510;-49
2022/08/29 11:25:34;;;;;;;7.80;5.93;;;22.70;99.90;;;;;;5072529;28;20431;-49
2022/08/29 11:28:08;;;;;;;11.10;6.83;;;22.70;99.90;;;;;;5072494;28;20432;-50
2022/08/29 11:30:43;;;;;;;10.93;7.57;;;22.60;99.90;;;;;;5071945;28;20452;-50
2022/08/29 11:33:24;;;;;;;7.87;6.27;;;22.60;99.90;;;;;;5072159;28;20438;-49
2022/08/29 11:36:02;;;;;;;8.30;5.50;;;22.50;99.90;;;;;;5072167;28;20454;-49
2022/08/29 11:38:53;;;;;;;9.70;5.70;;;22.80;99.90;;;;;;5071820;28;20437;-49
2022/08/29 11:41:27;;;;;;;11.70;6.60;;;22.90;99.90;;;;;;5071677;28;21056;-50
2022/08/29 11:44:04;;;;;;;7.93;6.00;;;23.10;99.90;;;;;;5072082;28;20558;-50
2022/08/29 11:46:36;;;;;;;9.47;5.90;;;23.30;99.90;;;;;;5071779;28;20432;-50
2022/08/29 11:49:34;;;;;;;9.37;5.87;;;23.40;99.90;;;;;;5071221;28;20434;-49
2022/08/29 11:52:16;;;;;;;6.90;5.80;;;23.60;99.90;;;;;;5071970;28;20949;-50
2022/08/29 11:55:08;;;;;;;8.80;5.63;;;23.70;99.90;;;;;;5072002;28;20468;-50
2022/08/29 11:57:46;;;;;;;9.40;5.90;;;23.90;99.90;;;;;;5071102;28;20524;-51
2022/08/29 12:00:42;;;;;;;7.30;5.33;;;23.90;99.80;;;;;;5070653;28;20528;-51
2022/08/29 12:03:54;;;;;;;7.67;5.50;;;24.10;99.40;;;;;;5053189;28;20461;-50
2022/08/29 12:06:54;;;;;;;7.60;5.33;;;24.10;99.10;;;;;;5071881;28;20936;-49
2022/08/29 12:09:36;;;;;;;8.20;5.30;;;24.10;98.90;;;;;;5071539;28;20438;-49
2022/08/29 12:12:39;;;;;;;10.60;5.40;;;24.10;99.00;;;;;;5070262;28;20450;-49
2022/08/29 12:15:46;;;;;;;7.27;5.37;;;24.00;98.90;;;;;;5071413;28;20440;-50
2022/08/29 12:18:36;;;;;;;9.43;5.07;;;24.00;98.70;;;;;;5071159;28;20573;-50
2022/08/29 12:21:47;;;;;;;6.77;5.10;;;24.10;98.50;;;;;;5070830;28;20503;-50
2022/08/29 12:24:41;;;;;;;10.27;5.87;;;24.00;98.50;;;;;;5071392;28;20937;-49
2022/08/29 12:27:58;;;;;;;7.43;5.27;;;24.00;98.30;;;;;;5071419;28;20955;-50
2022/08/29 12:30:27;;;;;;;6.80;4.87;;;24.10;98.30;;;;;;5071193;28;21008;-50
2022/08/29 12:33:03;;;;;;;7.20;4.57;;;24.10;98.50;;;;;;5071706;28;20435;-50
2022/08/29 12:35:58;;;;;;;9.40;5.50;;;24.10;98.20;;;;;;5071415;28;20467;-50
2022/08/29 12:38:34;;;;;;;11.60;5.20;;;24.20;98.00;;;;;;5069654;28;20874;-50
2022/08/29 12:41:17;;;;;;;7.70;5.27;;;24.30;98.10;;;;;;5071025;28;20493;-50
2022/08/29 12:43:45;;;;;;;8.07;5.50;;;24.40;98.00;;;;;;5071464;28;20910;-50
2022/08/29 12:46:23;;;;;;;6.63;5.10;;;24.50;97.90;;;;;;5071195;28;20805;-49
2022/08/29 12:48:53;;;;;;;5.70;4.37;;;24.50;97.50;;;;;;5070916;28;20449;-49
2022/08/29 12:51:39;;;;;;;10.17;5.70;;;24.50;97.40;;;;;;5068911;28;20488;-49
2022/08/29 12:54:07;;;;;;;9.60;5.40;;;24.50;97.20;;;;;;5070563;28;20809;-50
2022/08/29 12:56:35;;;;;;;8.93;5.73;;;24.30;97.30;;;;;;5071057;28;20441;-50
2022/08/29 12:59:04;;;;;;;6.30;5.10;;;24.40;97.30;;;;;;5070251;28;20547;-50
2022/08/29 13:01:36;;;;;;;8.73;5.20;;;24.50;97.20;;;;;;5074443;28;20477;-50
2022/08/29 13:04:05;;;;;;;6.53;5.00;;;24.50;97.20;;;;;;5074719;28;20433;-50
2022/08/29 13:06:33;;;;;;;7.70;4.60;;;24.50;97.20;;;;;;5072817;28;20950;-50
2022/08/29 13:09:00;;;;;;;8.43;4.83;;;24.60;97.10;;;;;;5074861;28;20432;-49
2022/08/29 13:11:29;;;;;;;7.83;5.53;;;24.60;97.00;;;;;;5074808;28;20513;-49
2022/08/29 13:14:08;;;;;;;6.87;4.93;;;24.60;96.90;;;;;;5074855;28;20433;-49